sensor_id;sensor_type;location;lat;lon;timestamp;P1;durP1;ratioP1;P2;durP2;ratioP2
51602;SDS011;37954;51.980;5.850;2023-08-06T00:00:28;7.35;;;4.60;;
51602;SDS011;37954;51.980;5.850;2023-08-06T00:04:40;6.10;;;4.70;;
51602;SDS011;37954;51.980;5.850;2023-08-06T00:08:52;8.15;;;4.45;;
51602;SDS011;37954;51.980;5.850;2023-08-06T00:13:04;12.15;;;5.13;;
51602;SDS011;37954;51.980;5.850;2023-08-06T00:17:15;7.10;;;5.22;;
51602;SDS011;37954;51.980;5.850;2023-08-06T00:21:27;6.97;;;5.47;;
51602;SDS011;37954;51.980;5.850;2023-08-06T00:25:39;8.98;;;6.03;;
51602;SDS011;37954;51.980;5.850;2023-08-06T00:29:50;9.57;;;6.07;;
51602;SDS011;37954;51.980;5.850;2023-08-06T00:34:02;8.43;;;5.80;;
51602;SDS011;37954;51.980;5.850;2023-08-06T00:38:14;8.55;;;6.63;;
51602;SDS011;37954;51.980;5.850;2023-08-06T00:42:26;7.50;;;6.35;;
51602;SDS011;37954;51.980;5.850;2023-08-06T00:46:37;9.15;;;6.78;;
51602;SDS011;37954;51.980;5.850;2023-08-06T00:50:50;8.43;;;7.07;;
51602;SDS011;37954;51.980;5.850;2023-08-06T00:55:02;11.98;;;6.88;;
51602;SDS011;37954;51.980;5.850;2023-08-06T00:59:14;9.18;;;6.85;;
51602;SDS011;37954;51.980;5.850;2023-08-06T01:03:26;9.18;;;6.38;;
51602;SDS011;37954;51.980;5.850;2023-08-06T01:16:55;7.63;;;6.47;;
51602;SDS011;37954;51.980;5.850;2023-08-06T01:21:09;6.82;;;5.78;;
51602;SDS011;37954;51.980;5.850;2023-08-06T01:25:21;9.93;;;5.05;;
51602;SDS011;37954;51.980;5.850;2023-08-06T01:29:44;5.47;;;4.35;;
51602;SDS011;37954;51.980;5.850;2023-08-06T01:34:05;6.13;;;4.78;;
51602;SDS011;37954;51.980;5.850;2023-08-06T01:38:20;6.43;;;4.90;;
51602;SDS011;37954;51.980;5.850;2023-08-06T01:42:33;8.57;;;5.45;;
51602;SDS011;37954;51.980;5.850;2023-08-06T01:46:44;5.82;;;5.20;;
51602;SDS011;37954;51.980;5.850;2023-08-06T01:50:56;6.70;;;5.43;;
51602;SDS011;37954;51.980;5.850;2023-08-06T01:55:08;7.72;;;5.57;;
51602;SDS011;37954;51.980;5.850;2023-08-06T01:59:20;8.27;;;6.47;;
51602;SDS011;37954;51.980;5.850;2023-08-06T02:03:31;7.85;;;6.88;;
51602;SDS011;37954;51.980;5.850;2023-08-06T02:07:43;9.55;;;7.28;;
51602;SDS011;37954;51.980;5.850;2023-08-06T02:11:55;9.15;;;8.05;;
51602;SDS011;37954;51.980;5.850;2023-08-06T02:16:07;12.75;;;9.57;;
51602;SDS011;37954;51.980;5.850;2023-08-06T02:20:20;12.82;;;9.63;;
51602;SDS011;37954;51.980;5.850;2023-08-06T02:24:31;11.25;;;9.40;;
51602;SDS011;37954;51.980;5.850;2023-08-06T02:28:43;10.00;;;8.60;;
51602;SDS011;37954;51.980;5.850;2023-08-06T02:32:57;10.02;;;9.05;;
51602;SDS011;37954;51.980;5.850;2023-08-06T02:37:11;10.80;;;9.38;;
51602;SDS011;37954;51.980;5.850;2023-08-06T02:41:23;11.50;;;9.45;;
51602;SDS011;37954;51.980;5.850;2023-08-06T02:45:34;11.32;;;9.88;;
51602;SDS011;37954;51.980;5.850;2023-08-06T02:49:47;12.45;;;10.43;;
51602;SDS011;37954;51.980;5.850;2023-08-06T02:53:59;10.77;;;9.50;;
51602;SDS011;37954;51.980;5.850;2023-08-06T02:58:11;12.57;;;9.15;;
51602;SDS011;37954;51.980;5.850;2023-08-06T03:02:28;10.88;;;8.73;;
51602;SDS011;37954;51.980;5.850;2023-08-06T03:06:45;14.13;;;8.75;;
51602;SDS011;37954;51.980;5.850;2023-08-06T03:10:57;10.57;;;7.72;;
51602;SDS011;37954;51.980;5.850;2023-08-06T03:15:09;8.13;;;6.80;;
51602;SDS011;37954;51.980;5.850;2023-08-06T03:19:22;10.55;;;6.80;;
51602;SDS011;37954;51.980;5.850;2023-08-06T03:23:34;8.90;;;6.40;;
51602;SDS011;37954;51.980;5.850;2023-08-06T03:27:46;6.72;;;6.00;;
51602;SDS011;37954;51.980;5.850;2023-08-06T03:32:01;7.38;;;6.35;;
51602;SDS011;37954;51.980;5.850;2023-08-06T03:36:13;7.80;;;5.88;;
51602;SDS011;37954;51.980;5.850;2023-08-06T03:40:26;10.20;;;6.55;;
51602;SDS011;37954;51.980;5.850;2023-08-06T03:44:39;9.15;;;7.35;;
51602;SDS011;37954;51.980;5.850;2023-08-06T03:48:53;9.00;;;6.63;;
51602;SDS011;37954;51.980;5.850;2023-08-06T03:53:05;8.88;;;6.88;;
51602;SDS011;37954;51.980;5.850;2023-08-06T03:57:17;8.45;;;6.35;;
51602;SDS011;37954;51.980;5.850;2023-08-06T04:01:29;9.00;;;6.80;;
51602;SDS011;37954;51.980;5.850;2023-08-06T04:05:41;10.95;;;6.45;;
51602;SDS011;37954;51.980;5.850;2023-08-06T04:09:53;11.18;;;7.18;;
51602;SDS011;37954;51.980;5.850;2023-08-06T04:14:06;10.63;;;6.65;;
51602;SDS011;37954;51.980;5.850;2023-08-06T04:18:18;7.72;;;6.93;;
51602;SDS011;37954;51.980;5.850;2023-08-06T04:22:29;9.32;;;6.85;;
51602;SDS011;37954;51.980;5.850;2023-08-06T04:26:41;8.85;;;7.20;;
51602;SDS011;37954;51.980;5.850;2023-08-06T04:30:55;9.60;;;7.13;;
51602;SDS011;37954;51.980;5.850;2023-08-06T04:35:07;8.70;;;7.20;;
51602;SDS011;37954;51.980;5.850;2023-08-06T04:39:21;9.13;;;7.85;;
51602;SDS011;37954;51.980;5.850;2023-08-06T04:43:33;9.30;;;7.35;;
51602;SDS011;37954;51.980;5.850;2023-08-06T04:47:44;9.70;;;7.70;;
51602;SDS011;37954;51.980;5.850;2023-08-06T04:51:56;10.80;;;7.78;;
51602;SDS011;37954;51.980;5.850;2023-08-06T04:56:08;9.05;;;7.25;;
51602;SDS011;37954;51.980;5.850;2023-08-06T05:00:20;10.13;;;8.25;;
51602;SDS011;37954;51.980;5.850;2023-08-06T05:04:31;9.88;;;7.78;;
51602;SDS011;37954;51.980;5.850;2023-08-06T05:08:44;10.85;;;8.75;;
51602;SDS011;37954;51.980;5.850;2023-08-06T05:12:55;13.38;;;9.07;;
51602;SDS011;37954;51.980;5.850;2023-08-06T05:17:07;10.27;;;8.20;;
51602;SDS011;37954;51.980;5.850;2023-08-06T05:21:19;14.18;;;9.20;;
51602;SDS011;37954;51.980;5.850;2023-08-06T05:25:31;12.43;;;9.07;;
51602;SDS011;37954;51.980;5.850;2023-08-06T05:29:43;11.90;;;8.52;;
51602;SDS011;37954;51.980;5.850;2023-08-06T05:33:54;14.65;;;8.82;;
51602;SDS011;37954;51.980;5.850;2023-08-06T05:38:06;11.38;;;7.70;;
51602;SDS011;37954;51.980;5.850;2023-08-06T05:42:18;12.98;;;9.18;;
51602;SDS011;37954;51.980;5.850;2023-08-06T05:46:30;8.65;;;7.57;;
51602;SDS011;37954;51.980;5.850;2023-08-06T05:50:42;8.88;;;7.97;;
51602;SDS011;37954;51.980;5.850;2023-08-06T05:54:54;11.00;;;8.85;;
51602;SDS011;37954;51.980;5.850;2023-08-06T05:59:06;11.05;;;9.48;;
51602;SDS011;37954;51.980;5.850;2023-08-06T06:03:18;12.40;;;9.70;;
51602;SDS011;37954;51.980;5.850;2023-08-06T06:07:29;13.45;;;9.75;;
51602;SDS011;37954;51.980;5.850;2023-08-06T06:11:41;13.90;;;10.50;;
51602;SDS011;37954;51.980;5.850;2023-08-06T06:15:56;13.60;;;11.68;;
51602;SDS011;37954;51.980;5.850;2023-08-06T06:20:08;13.75;;;11.15;;
51602;SDS011;37954;51.980;5.850;2023-08-06T06:24:20;13.13;;;10.85;;
51602;SDS011;37954;51.980;5.850;2023-08-06T06:28:31;12.05;;;10.70;;
51602;SDS011;37954;51.980;5.850;2023-08-06T06:32:43;14.20;;;11.52;;
51602;SDS011;37954;51.980;5.850;2023-08-06T06:36:55;13.40;;;10.77;;
51602;SDS011;37954;51.980;5.850;2023-08-06T06:41:07;14.80;;;11.52;;
51602;SDS011;37954;51.980;5.850;2023-08-06T06:45:18;15.57;;;11.82;;
51602;SDS011;37954;51.980;5.850;2023-08-06T06:49:30;16.15;;;11.57;;
51602;SDS011;37954;51.980;5.850;2023-08-06T06:53:42;15.02;;;11.40;;
51602;SDS011;37954;51.980;5.850;2023-08-06T06:57:53;16.13;;;10.98;;
51602;SDS011;37954;51.980;5.850;2023-08-06T07:02:05;15.27;;;11.43;;
51602;SDS011;37954;51.980;5.850;2023-08-06T07:06:17;15.65;;;10.93;;
51602;SDS011;37954;51.980;5.850;2023-08-06T07:10:29;12.80;;;10.43;;
51602;SDS011;37954;51.980;5.850;2023-08-06T07:14:41;13.23;;;10.05;;
51602;SDS011;37954;51.980;5.850;2023-08-06T07:18:53;12.88;;;10.23;;
51602;SDS011;37954;51.980;5.850;2023-08-06T07:23:05;13.05;;;10.27;;
51602;SDS011;37954;51.980;5.850;2023-08-06T07:27:19;11.27;;;10.02;;
51602;SDS011;37954;51.980;5.850;2023-08-06T07:31:30;11.20;;;9.98;;
51602;SDS011;37954;51.980;5.850;2023-08-06T07:35:42;11.80;;;10.18;;
51602;SDS011;37954;51.980;5.850;2023-08-06T07:39:57;14.38;;;11.10;;
51602;SDS011;37954;51.980;5.850;2023-08-06T07:44:09;12.23;;;10.20;;
51602;SDS011;37954;51.980;5.850;2023-08-06T07:48:21;13.35;;;10.10;;
51602;SDS011;37954;51.980;5.850;2023-08-06T07:52:33;12.88;;;10.57;;
51602;SDS011;37954;51.980;5.850;2023-08-06T07:56:44;12.30;;;10.63;;
51602;SDS011;37954;51.980;5.850;2023-08-06T08:00:56;11.88;;;9.70;;
51602;SDS011;37954;51.980;5.850;2023-08-06T08:05:08;14.95;;;9.65;;
51602;SDS011;37954;51.980;5.850;2023-08-06T08:09:20;11.40;;;9.07;;
51602;SDS011;37954;51.980;5.850;2023-08-06T08:13:32;13.32;;;9.55;;
51602;SDS011;37954;51.980;5.850;2023-08-06T08:17:43;13.23;;;8.93;;
51602;SDS011;37954;51.980;5.850;2023-08-06T08:21:55;11.38;;;8.90;;
51602;SDS011;37954;51.980;5.850;2023-08-06T08:26:07;15.65;;;9.02;;
51602;SDS011;37954;51.980;5.850;2023-08-06T08:30:19;15.43;;;8.95;;
51602;SDS011;37954;51.980;5.850;2023-08-06T08:34:30;9.68;;;8.65;;
51602;SDS011;37954;51.980;5.850;2023-08-06T08:38:42;10.13;;;7.95;;
51602;SDS011;37954;51.980;5.850;2023-08-06T08:42:54;9.90;;;7.90;;
51602;SDS011;37954;51.980;5.850;2023-08-06T08:47:06;8.77;;;7.80;;
51602;SDS011;37954;51.980;5.850;2023-08-06T08:51:20;7.72;;;6.78;;
51602;SDS011;37954;51.980;5.850;2023-08-06T08:55:33;7.90;;;7.03;;
51602;SDS011;37954;51.980;5.850;2023-08-06T08:59:45;7.88;;;5.85;;
51602;SDS011;37954;51.980;5.850;2023-08-06T09:03:57;6.63;;;5.90;;
51602;SDS011;37954;51.980;5.850;2023-08-06T09:08:11;7.03;;;5.63;;
51602;SDS011;37954;51.980;5.850;2023-08-06T09:12:27;5.18;;;4.72;;
51602;SDS011;37954;51.980;5.850;2023-08-06T09:16:40;8.20;;;5.85;;
51602;SDS011;37954;51.980;5.850;2023-08-06T09:20:52;7.70;;;5.60;;
51602;SDS011;37954;51.980;5.850;2023-08-06T09:25:04;7.07;;;5.95;;
51602;SDS011;37954;51.980;5.850;2023-08-06T09:29:21;6.07;;;5.40;;
51602;SDS011;37954;51.980;5.850;2023-08-06T09:33:33;6.93;;;5.40;;
51602;SDS011;37954;51.980;5.850;2023-08-06T09:37:47;5.50;;;5.00;;
51602;SDS011;37954;51.980;5.850;2023-08-06T09:42:00;6.47;;;5.00;;
51602;SDS011;37954;51.980;5.850;2023-08-06T09:46:13;6.13;;;5.47;;
51602;SDS011;37954;51.980;5.850;2023-08-06T09:50:29;6.00;;;5.30;;
51602;SDS011;37954;51.980;5.850;2023-08-06T09:54:46;7.13;;;5.57;;
51602;SDS011;37954;51.980;5.850;2023-08-06T09:59:00;10.55;;;6.97;;
51602;SDS011;37954;51.980;5.850;2023-08-06T10:03:13;8.30;;;7.50;;
51602;SDS011;37954;51.980;5.850;2023-08-06T10:07:25;12.15;;;9.75;;
51602;SDS011;37954;51.980;5.850;2023-08-06T10:11:39;12.32;;;10.23;;
51602;SDS011;37954;51.980;5.850;2023-08-06T10:15:51;13.60;;;11.18;;
51602;SDS011;37954;51.980;5.850;2023-08-06T10:20:07;4.20;;;3.80;;
51602;SDS011;37954;51.980;5.850;2023-08-06T10:24:20;1.80;;;1.70;;
51602;SDS011;37954;51.980;5.850;2023-08-06T10:28:36;2.00;;;1.55;;
51602;SDS011;37954;51.980;5.850;2023-08-06T10:32:49;1.30;;;1.20;;
51602;SDS011;37954;51.980;5.850;2023-08-06T10:37:03;1.25;;;1.00;;
51602;SDS011;37954;51.980;5.850;2023-08-06T10:41:37;0.98;;;0.98;;
51602;SDS011;37954;51.980;5.850;2023-08-06T10:45:49;1.48;;;1.27;;
51602;SDS011;37954;51.980;5.850;2023-08-06T10:50:02;1.33;;;1.23;;
51602;SDS011;37954;51.980;5.850;2023-08-06T10:54:14;2.53;;;1.55;;
51602;SDS011;37954;51.980;5.850;2023-08-06T10:58:30;1.65;;;1.55;;
51602;SDS011;37954;51.980;5.850;2023-08-06T11:02:43;2.13;;;1.92;;
51602;SDS011;37954;51.980;5.850;2023-08-06T11:06:55;1.63;;;1.40;;
51602;SDS011;37954;51.980;5.850;2023-08-06T11:11:11;2.58;;;1.60;;
51602;SDS011;37954;51.980;5.850;2023-08-06T11:15:24;2.80;;;2.08;;
51602;SDS011;37954;51.980;5.850;2023-08-06T11:19:36;3.58;;;1.75;;
51602;SDS011;37954;51.980;5.850;2023-08-06T11:23:48;2.95;;;2.13;;
51602;SDS011;37954;51.980;5.850;2023-08-06T11:28:00;5.43;;;2.25;;
51602;SDS011;37954;51.980;5.850;2023-08-06T11:32:12;4.28;;;2.20;;
51602;SDS011;37954;51.980;5.850;2023-08-06T11:36:31;2.97;;;2.15;;
51602;SDS011;37954;51.980;5.850;2023-08-06T11:40:44;2.97;;;2.40;;
51602;SDS011;37954;51.980;5.850;2023-08-06T11:44:56;2.75;;;2.55;;
51602;SDS011;37954;51.980;5.850;2023-08-06T11:49:08;3.67;;;3.08;;
51602;SDS011;37954;51.980;5.850;2023-08-06T11:53:20;3.63;;;3.03;;
51602;SDS011;37954;51.980;5.850;2023-08-06T11:57:32;3.28;;;2.72;;
51602;SDS011;37954;51.980;5.850;2023-08-06T12:01:46;4.15;;;2.92;;
51602;SDS011;37954;51.980;5.850;2023-08-06T12:05:58;4.47;;;2.70;;
51602;SDS011;37954;51.980;5.850;2023-08-06T12:10:10;3.72;;;2.60;;
51602;SDS011;37954;51.980;5.850;2023-08-06T12:14:23;3.88;;;2.50;;
51602;SDS011;37954;51.980;5.850;2023-08-06T12:18:35;5.45;;;2.78;;
51602;SDS011;37954;51.980;5.850;2023-08-06T12:22:47;3.83;;;2.92;;
51602;SDS011;37954;51.980;5.850;2023-08-06T12:26:59;3.10;;;2.80;;
51602;SDS011;37954;51.980;5.850;2023-08-06T12:35:47;4.72;;;2.63;;
51602;SDS011;37954;51.980;5.850;2023-08-06T12:39:59;3.95;;;2.72;;
51602;SDS011;37954;51.980;5.850;2023-08-06T12:44:30;3.70;;;2.88;;
51602;SDS011;37954;51.980;5.850;2023-08-06T12:48:42;3.67;;;2.75;;
51602;SDS011;37954;51.980;5.850;2023-08-06T12:52:54;2.60;;;2.15;;
51602;SDS011;37954;51.980;5.850;2023-08-06T12:57:05;4.15;;;2.65;;
51602;SDS011;37954;51.980;5.850;2023-08-06T13:01:17;3.00;;;2.55;;
51602;SDS011;37954;51.980;5.850;2023-08-06T13:05:29;4.88;;;2.88;;
51602;SDS011;37954;51.980;5.850;2023-08-06T13:09:41;3.42;;;2.72;;
51602;SDS011;37954;51.980;5.850;2023-08-06T13:13:53;3.40;;;2.53;;
51602;SDS011;37954;51.980;5.850;2023-08-06T13:18:04;4.95;;;2.75;;
51602;SDS011;37954;51.980;5.850;2023-08-06T13:22:16;3.55;;;2.55;;
51602;SDS011;37954;51.980;5.850;2023-08-06T13:26:31;3.67;;;2.40;;
51602;SDS011;37954;51.980;5.850;2023-08-06T13:30:43;3.22;;;2.50;;
51602;SDS011;37954;51.980;5.850;2023-08-06T13:34:55;3.90;;;2.60;;
51602;SDS011;37954;51.980;5.850;2023-08-06T13:39:07;2.40;;;2.20;;
51602;SDS011;37954;51.980;5.850;2023-08-06T13:43:19;3.83;;;2.50;;
51602;SDS011;37954;51.980;5.850;2023-08-06T13:47:30;3.00;;;2.17;;
51602;SDS011;37954;51.980;5.850;2023-08-06T13:51:42;2.90;;;2.50;;
51602;SDS011;37954;51.980;5.850;2023-08-06T14:00:29;2.78;;;2.28;;
51602;SDS011;37954;51.980;5.850;2023-08-06T14:04:41;4.13;;;2.47;;
51602;SDS011;37954;51.980;5.850;2023-08-06T14:08:53;3.13;;;2.28;;
51602;SDS011;37954;51.980;5.850;2023-08-06T14:13:05;7.10;;;2.70;;
51602;SDS011;37954;51.980;5.850;2023-08-06T14:17:21;3.30;;;2.70;;
51602;SDS011;37954;51.980;5.850;2023-08-06T14:21:33;3.05;;;2.50;;
51602;SDS011;37954;51.980;5.850;2023-08-06T14:25:45;3.03;;;2.72;;
51602;SDS011;37954;51.980;5.850;2023-08-06T14:29:56;3.83;;;3.00;;
51602;SDS011;37954;51.980;5.850;2023-08-06T14:34:08;2.95;;;2.65;;
51602;SDS011;37954;51.980;5.850;2023-08-06T14:38:20;3.85;;;2.90;;
51602;SDS011;37954;51.980;5.850;2023-08-06T14:42:32;3.88;;;2.85;;
51602;SDS011;37954;51.980;5.850;2023-08-06T14:46:43;4.68;;;2.75;;
51602;SDS011;37954;51.980;5.850;2023-08-06T14:50:55;2.90;;;2.60;;
51602;SDS011;37954;51.980;5.850;2023-08-06T14:55:07;2.88;;;2.63;;
51602;SDS011;37954;51.980;5.850;2023-08-06T14:59:19;4.25;;;3.03;;
51602;SDS011;37954;51.980;5.850;2023-08-06T15:03:31;4.75;;;4.03;;
51602;SDS011;37954;51.980;5.850;2023-08-06T15:07:43;3.20;;;2.90;;
51602;SDS011;37954;51.980;5.850;2023-08-06T15:11:54;5.13;;;2.92;;
51602;SDS011;37954;51.980;5.850;2023-08-06T15:16:06;3.95;;;2.90;;
51602;SDS011;37954;51.980;5.850;2023-08-06T15:20:18;5.32;;;3.00;;
51602;SDS011;37954;51.980;5.850;2023-08-06T15:24:30;4.90;;;3.00;;
51602;SDS011;37954;51.980;5.850;2023-08-06T15:28:41;6.10;;;2.88;;
51602;SDS011;37954;51.980;5.850;2023-08-06T15:32:53;7.63;;;3.30;;
51602;SDS011;37954;51.980;5.850;2023-08-06T15:37:05;5.63;;;3.00;;
51602;SDS011;37954;51.980;5.850;2023-08-06T15:41:17;5.18;;;3.03;;
51602;SDS011;37954;51.980;5.850;2023-08-06T15:45:28;3.78;;;2.92;;
51602;SDS011;37954;51.980;5.850;2023-08-06T15:49:40;4.38;;;3.20;;
51602;SDS011;37954;51.980;5.850;2023-08-06T15:53:52;4.20;;;3.00;;
51602;SDS011;37954;51.980;5.850;2023-08-06T15:58:03;4.00;;;2.83;;
51602;SDS011;37954;51.980;5.850;2023-08-06T16:02:16;2.95;;;2.20;;
51602;SDS011;37954;51.980;5.850;2023-08-06T16:06:28;2.30;;;2.05;;
51602;SDS011;37954;51.980;5.850;2023-08-06T16:10:39;4.93;;;1.75;;
51602;SDS011;37954;51.980;5.850;2023-08-06T16:14:55;2.65;;;1.73;;
51602;SDS011;37954;51.980;5.850;2023-08-06T16:19:07;2.65;;;1.90;;
51602;SDS011;37954;51.980;5.850;2023-08-06T16:23:19;1.95;;;1.30;;
51602;SDS011;37954;51.980;5.850;2023-08-06T16:27:30;1.88;;;1.10;;
51602;SDS011;37954;51.980;5.850;2023-08-06T16:31:42;4.63;;;1.20;;
51602;SDS011;37954;51.980;5.850;2023-08-06T16:35:54;2.35;;;1.13;;
51602;SDS011;37954;51.980;5.850;2023-08-06T16:40:06;6.43;;;1.50;;
51602;SDS011;37954;51.980;5.850;2023-08-06T16:44:20;2.67;;;1.17;;
51602;SDS011;37954;51.980;5.850;2023-08-06T16:48:32;4.00;;;1.42;;
51602;SDS011;37954;51.980;5.850;2023-08-06T16:52:45;4.55;;;1.58;;
51602;SDS011;37954;51.980;5.850;2023-08-06T16:56:57;3.20;;;1.05;;
51602;SDS011;37954;51.980;5.850;2023-08-06T17:01:11;2.08;;;1.02;;
51602;SDS011;37954;51.980;5.850;2023-08-06T17:05:23;4.88;;;1.80;;
51602;SDS011;37954;51.980;5.850;2023-08-06T17:09:35;3.95;;;1.20;;
51602;SDS011;37954;51.980;5.850;2023-08-06T17:13:47;5.57;;;1.13;;
51602;SDS011;37954;51.980;5.850;2023-08-06T17:17:58;4.07;;;1.13;;
51602;SDS011;37954;51.980;5.850;2023-08-06T17:22:11;5.53;;;1.67;;
51602;SDS011;37954;51.980;5.850;2023-08-06T17:26:23;3.60;;;1.35;;
51602;SDS011;37954;51.980;5.850;2023-08-06T17:30:35;3.47;;;0.95;;
51602;SDS011;37954;51.980;5.850;2023-08-06T17:34:46;3.10;;;1.52;;
51602;SDS011;37954;51.980;5.850;2023-08-06T17:38:58;6.00;;;1.50;;
51602;SDS011;37954;51.980;5.850;2023-08-06T17:43:14;2.22;;;1.27;;
51602;SDS011;37954;51.980;5.850;2023-08-06T17:47:26;3.38;;;1.15;;
51602;SDS011;37954;51.980;5.850;2023-08-06T17:51:47;3.50;;;1.13;;
51602;SDS011;37954;51.980;5.850;2023-08-06T17:55:59;5.00;;;1.00;;
51602;SDS011;37954;51.980;5.850;2023-08-06T18:00:12;1.65;;;1.00;;
51602;SDS011;37954;51.980;5.850;2023-08-06T18:04:28;2.35;;;1.02;;
51602;SDS011;37954;51.980;5.850;2023-08-06T18:08:39;4.82;;;1.33;;
51602;SDS011;37954;51.980;5.850;2023-08-06T18:12:51;1.58;;;1.10;;
51602;SDS011;37954;51.980;5.850;2023-08-06T18:17:03;2.75;;;1.40;;
51602;SDS011;37954;51.980;5.850;2023-08-06T18:21:15;2.28;;;1.00;;
51602;SDS011;37954;51.980;5.850;2023-08-06T18:25:26;1.83;;;1.15;;
51602;SDS011;37954;51.980;5.850;2023-08-06T18:29:38;4.85;;;1.10;;
51602;SDS011;37954;51.980;5.850;2023-08-06T18:33:50;1.90;;;1.50;;
51602;SDS011;37954;51.980;5.850;2023-08-06T18:38:02;7.72;;;1.45;;
51602;SDS011;37954;51.980;5.850;2023-08-06T18:42:15;5.95;;;1.33;;
51602;SDS011;37954;51.980;5.850;2023-08-06T18:46:27;4.60;;;1.52;;
51602;SDS011;37954;51.980;5.850;2023-08-06T18:50:38;4.88;;;1.48;;
51602;SDS011;37954;51.980;5.850;2023-08-06T18:54:50;3.60;;;1.55;;
51602;SDS011;37954;51.980;5.850;2023-08-06T18:59:02;4.07;;;1.50;;
51602;SDS011;37954;51.980;5.850;2023-08-06T19:03:14;8.38;;;2.15;;
51602;SDS011;37954;51.980;5.850;2023-08-06T19:11:50;11.60;;;1.65;;
51602;SDS011;37954;51.980;5.850;2023-08-06T19:16:01;4.03;;;1.30;;
51602;SDS011;37954;51.980;5.850;2023-08-06T19:20:13;2.55;;;1.63;;
51602;SDS011;37954;51.980;5.850;2023-08-06T19:24:25;5.05;;;1.70;;
51602;SDS011;37954;51.980;5.850;2023-08-06T19:28:37;5.25;;;1.45;;
51602;SDS011;37954;51.980;5.850;2023-08-06T19:32:49;8.52;;;1.75;;
51602;SDS011;37954;51.980;5.850;2023-08-06T19:37:00;2.33;;;1.27;;
51602;SDS011;37954;51.980;5.850;2023-08-06T19:41:12;4.97;;;1.38;;
51602;SDS011;37954;51.980;5.850;2023-08-06T19:45:24;4.00;;;1.27;;
51602;SDS011;37954;51.980;5.850;2023-08-06T19:49:36;2.70;;;1.20;;
51602;SDS011;37954;51.980;5.850;2023-08-06T19:53:47;5.90;;;1.23;;
51602;SDS011;37954;51.980;5.850;2023-08-06T19:57:59;5.95;;;1.52;;
51602;SDS011;37954;51.980;5.850;2023-08-06T20:02:11;2.63;;;1.20;;
51602;SDS011;37954;51.980;5.850;2023-08-06T20:06:23;2.22;;;1.05;;
51602;SDS011;37954;51.980;5.850;2023-08-06T20:10:49;4.20;;;1.40;;
51602;SDS011;37954;51.980;5.850;2023-08-06T20:15:02;2.47;;;1.55;;
51602;SDS011;37954;51.980;5.850;2023-08-06T20:19:14;4.03;;;1.33;;
51602;SDS011;37954;51.980;5.850;2023-08-06T20:23:26;2.63;;;1.45;;
51602;SDS011;37954;51.980;5.850;2023-08-06T20:27:38;1.85;;;1.33;;
51602;SDS011;37954;51.980;5.850;2023-08-06T20:31:50;3.67;;;1.17;;
51602;SDS011;37954;51.980;5.850;2023-08-06T20:36:02;2.47;;;1.20;;
51602;SDS011;37954;51.980;5.850;2023-08-06T20:40:14;2.97;;;1.20;;
51602;SDS011;37954;51.980;5.850;2023-08-06T20:44:25;2.13;;;1.13;;
51602;SDS011;37954;51.980;5.850;2023-08-06T20:48:38;2.25;;;1.30;;
51602;SDS011;37954;51.980;5.850;2023-08-06T20:52:49;3.65;;;1.17;;
51602;SDS011;37954;51.980;5.850;2023-08-06T20:57:01;3.28;;;1.13;;
51602;SDS011;37954;51.980;5.850;2023-08-06T21:01:13;2.78;;;1.35;;
51602;SDS011;37954;51.980;5.850;2023-08-06T21:05:25;4.40;;;1.10;;
51602;SDS011;37954;51.980;5.850;2023-08-06T21:09:38;3.55;;;1.05;;
51602;SDS011;37954;51.980;5.850;2023-08-06T21:13:49;2.03;;;1.08;;
51602;SDS011;37954;51.980;5.850;2023-08-06T21:18:01;2.85;;;1.40;;
51602;SDS011;37954;51.980;5.850;2023-08-06T21:22:13;2.58;;;1.10;;
51602;SDS011;37954;51.980;5.850;2023-08-06T21:26:25;1.55;;;0.95;;
51602;SDS011;37954;51.980;5.850;2023-08-06T21:30:36;2.70;;;1.25;;
51602;SDS011;37954;51.980;5.850;2023-08-06T21:34:48;6.70;;;1.30;;
51602;SDS011;37954;51.980;5.850;2023-08-06T21:39:00;2.28;;;0.93;;
51602;SDS011;37954;51.980;5.850;2023-08-06T21:43:12;3.75;;;1.55;;
51602;SDS011;37954;51.980;5.850;2023-08-06T21:47:24;2.80;;;1.13;;
51602;SDS011;37954;51.980;5.850;2023-08-06T21:51:35;1.65;;;0.98;;
51602;SDS011;37954;51.980;5.850;2023-08-06T21:55:47;1.20;;;0.93;;
51602;SDS011;37954;51.980;5.850;2023-08-06T21:59:59;1.00;;;0.93;;
51602;SDS011;37954;51.980;5.850;2023-08-06T22:04:11;1.95;;;1.00;;
51602;SDS011;37954;51.980;5.850;2023-08-06T22:08:22;2.65;;;0.80;;
51602;SDS011;37954;51.980;5.850;2023-08-06T22:12:34;1.85;;;0.90;;
51602;SDS011;37954;51.980;5.850;2023-08-06T22:16:46;1.50;;;0.80;;
51602;SDS011;37954;51.980;5.850;2023-08-06T22:20:58;1.02;;;0.80;;
51602;SDS011;37954;51.980;5.850;2023-08-06T22:25:10;4.15;;;1.15;;
51602;SDS011;37954;51.980;5.850;2023-08-06T22:29:22;3.08;;;1.27;;
51602;SDS011;37954;51.980;5.850;2023-08-06T22:33:34;2.85;;;1.23;;
51602;SDS011;37954;51.980;5.850;2023-08-06T22:37:46;7.30;;;1.73;;
51602;SDS011;37954;51.980;5.850;2023-08-06T22:41:58;2.05;;;1.75;;
51602;SDS011;37954;51.980;5.850;2023-08-06T22:46:10;5.32;;;1.90;;
51602;SDS011;37954;51.980;5.850;2023-08-06T22:50:22;3.03;;;1.65;;
51602;SDS011;37954;51.980;5.850;2023-08-06T22:54:33;3.38;;;1.75;;
51602;SDS011;37954;51.980;5.850;2023-08-06T22:58:45;3.70;;;2.03;;
51602;SDS011;37954;51.980;5.850;2023-08-06T23:02:58;3.13;;;1.67;;
51602;SDS011;37954;51.980;5.850;2023-08-06T23:07:21;8.80;;;1.90;;
51602;SDS011;37954;51.980;5.850;2023-08-06T23:11:33;5.60;;;1.88;;
51602;SDS011;37954;51.980;5.850;2023-08-06T23:15:45;7.13;;;2.20;;
51602;SDS011;37954;51.980;5.850;2023-08-06T23:19:57;7.00;;;2.08;;
51602;SDS011;37954;51.980;5.850;2023-08-06T23:24:09;5.63;;;2.28;;
51602;SDS011;37954;51.980;5.850;2023-08-06T23:28:21;3.30;;;1.88;;
51602;SDS011;37954;51.980;5.850;2023-08-06T23:32:33;7.65;;;1.90;;
51602;SDS011;37954;51.980;5.850;2023-08-06T23:36:45;4.50;;;2.17;;
51602;SDS011;37954;51.980;5.850;2023-08-06T23:40:57;4.25;;;1.92;;
51602;SDS011;37954;51.980;5.850;2023-08-06T23:45:09;5.63;;;1.80;;
51602;SDS011;37954;51.980;5.850;2023-08-06T23:49:21;6.90;;;1.90;;
51602;SDS011;37954;51.980;5.850;2023-08-06T23:53:34;7.93;;;2.10;;
51602;SDS011;37954;51.980;5.850;2023-08-06T23:57:45;5.10;;;1.92;;
